Time;durP1;ratioP1;P1;durP2;ratioP2;P2;SDS_P1;SDS_P2;PMS_P1;PMS_P2;Temp;Humidity;BMP_temperature;BMP_pressure;BME280_temperature;BME280_humidity;BME280_pressure;Samples;Min_cycle;Max_cycle;Signal;HPM_P1;HPM_P2
2023/08/28 00:00:18;;;;;;;27.65;12.07;;;11.00;99.90;;;;;;5023691;28;20049;-71
2023/08/28 00:02:44;;;;;;;25.42;11.98;;;11.00;99.90;;;;;;5020619;28;20033;-71
2023/08/28 00:05:09;;;;;;;22.95;11.63;;;11.00;99.90;;;;;;5029230;28;20032;-71
2023/08/28 00:07:35;;;;;;;27.75;12.50;;;11.10;99.90;;;;;;5019163;28;20030;-71
2023/08/28 00:10:00;;;;;;;28.70;12.02;;;11.00;99.90;;;;;;5035668;28;20032;-71
2023/08/28 00:12:26;;;;;;;23.13;11.68;;;11.00;99.90;;;;;;5020924;28;20072;-71
2023/08/28 00:14:51;;;;;;;24.15;11.05;;;11.00;99.80;;;;;;5017530;28;20378;-71
2023/08/28 00:17:17;;;;;;;26.85;13.02;;;11.00;99.90;;;;;;5018439;28;20079;-71
2023/08/28 00:19:43;;;;;;;23.65;12.55;;;11.00;99.90;;;;;;5031727;28;20018;-71
2023/08/28 00:22:09;;;;;;;23.45;11.07;;;11.00;99.80;;;;;;5022635;28;20524;-71
2023/08/28 00:24:34;;;;;;;24.88;11.82;;;11.00;99.90;;;;;;5025253;28;20053;-71
2023/08/28 00:26:59;;;;;;;23.50;11.93;;;11.00;99.90;;;;;;5021285;28;20528;-71
2023/08/28 00:29:25;;;;;;;31.27;12.20;;;11.10;99.90;;;;;;5025991;28;20034;-71
2023/08/28 00:31:50;;;;;;;26.85;11.95;;;11.00;99.80;;;;;;5014986;28;20022;-71
2023/08/28 00:34:16;;;;;;;29.25;12.73;;;11.10;99.80;;;;;;5019128;28;20022;-71
2023/08/28 00:36:42;;;;;;;25.73;11.23;;;11.00;99.80;;;;;;5029531;28;20026;-70
2023/08/28 00:39:08;;;;;;;23.85;12.10;;;11.10;99.80;;;;;;5028452;28;20022;-71
2023/08/28 00:41:34;;;;;;;27.40;12.02;;;11.00;99.80;;;;;;5025334;28;20040;-71
2023/08/28 00:43:59;;;;;;;26.67;12.73;;;11.00;99.80;;;;;;5021618;28;20021;-71
2023/08/28 00:46:26;;;;;;;28.98;12.13;;;11.00;99.80;;;;;;5020098;28;20037;-71
2023/08/28 00:48:51;;;;;;;22.92;11.73;;;11.00;99.80;;;;;;5022456;28;20033;-72
2023/08/28 00:51:17;;;;;;;26.55;12.32;;;11.00;99.80;;;;;;5023184;28;20508;-71
2023/08/28 00:53:43;;;;;;;26.48;12.82;;;11.00;99.80;;;;;;5016869;28;20017;-71
2023/08/28 00:56:08;;;;;;;27.50;13.00;;;11.00;99.80;;;;;;5040157;28;20025;-71
2023/08/28 00:58:34;;;;;;;30.23;12.80;;;11.00;99.80;;;;;;5021366;28;20032;-71
2023/08/28 01:01:01;;;;;;;32.58;12.88;;;11.00;99.90;;;;;;5033856;28;20028;-71
2023/08/28 01:03:26;;;;;;;27.48;12.85;;;10.90;99.90;;;;;;5017868;28;20026;-71
2023/08/28 01:06:06;;;;;;;26.85;13.80;;;11.00;99.90;;;;;;5033564;28;20389;-71
2023/08/28 01:08:52;;;;;;;29.33;13.27;;;10.90;99.90;;;;;;5026251;28;20068;-71
2023/08/28 01:11:27;;;;;;;24.45;12.98;;;10.80;99.90;;;;;;5032689;28;20026;-71
2023/08/28 01:14:00;;;;;;;32.40;13.50;;;10.90;99.90;;;;;;5029710;28;20029;-71
2023/08/28 01:16:27;;;;;;;31.50;13.75;;;10.90;99.90;;;;;;5020199;28;20180;-71
2023/08/28 01:18:53;;;;;;;32.45;14.38;;;11.00;99.90;;;;;;5028215;28;20060;-71
2023/08/28 01:21:20;;;;;;;34.85;14.65;;;10.90;99.90;;;;;;5028694;28;20025;-71
2023/08/28 01:24:05;;;;;;;28.73;13.98;;;10.90;99.90;;;;;;5024942;28;20424;-71
2023/08/28 01:26:31;;;;;;;31.08;14.73;;;10.90;99.90;;;;;;5022658;28;20041;-71
2023/08/28 01:28:56;;;;;;;30.50;15.32;;;10.90;99.90;;;;;;5028188;28;20037;-71
2023/08/28 01:31:23;;;;;;;32.38;15.02;;;10.80;99.90;;;;;;5020383;28;20064;-70
2023/08/28 01:33:51;;;;;;;28.45;14.35;;;10.90;99.90;;;;;;5025814;28;20394;-71
2023/08/28 01:36:33;;;;;;;34.50;15.63;;;10.90;99.90;;;;;;5029113;28;20025;-71
2023/08/28 01:39:06;;;;;;;31.30;13.93;;;10.90;99.90;;;;;;5028015;28;20068;-71
2023/08/28 01:41:33;;;;;;;33.88;15.77;;;11.00;99.90;;;;;;5030193;28;20026;-71
2023/08/28 01:44:01;;;;;;;36.28;16.17;;;11.10;99.90;;;;;;5044096;28;20068;-71
2023/08/28 01:46:28;;;;;;;36.83;16.35;;;11.20;99.90;;;;;;5024020;28;20033;-71
2023/08/28 01:48:54;;;;;;;36.90;16.35;;;11.20;99.90;;;;;;5030730;28;20395;-71
2023/08/28 01:51:20;;;;;;;37.10;14.95;;;11.30;99.90;;;;;;5024651;28;20076;-71
2023/08/28 01:53:46;;;;;;;34.85;16.30;;;11.30;99.90;;;;;;5037468;28;20021;-71
2023/08/28 01:56:16;;;;;;;39.63;17.15;;;11.30;99.90;;;;;;5035296;28;20053;-71
2023/08/28 01:58:46;;;;;;;35.50;16.40;;;11.30;99.90;;;;;;5034829;28;20032;-71
2023/08/28 02:01:12;;;;;;;36.92;17.13;;;11.30;99.90;;;;;;5024436;28;20021;-71
2023/08/28 02:03:38;;;;;;;33.53;17.00;;;11.20;99.90;;;;;;5032851;28;20033;-71
2023/08/28 02:06:05;;;;;;;39.20;17.23;;;11.30;99.90;;;;;;5025488;28;20022;-71
2023/08/28 02:08:30;;;;;;;38.60;16.50;;;11.30;99.90;;;;;;5030621;28;20029;-71
2023/08/28 02:10:56;;;;;;;40.08;17.98;;;11.40;99.90;;;;;;5023893;28;20029;-71
2023/08/28 02:13:21;;;;;;;39.15;17.23;;;11.40;99.90;;;;;;5022089;28;20077;-71
2023/08/28 02:15:47;;;;;;;35.85;17.75;;;11.40;99.90;;;;;;5028418;28;20049;-71
2023/08/28 02:18:12;;;;;;;40.53;16.92;;;11.40;99.90;;;;;;5037666;28;20033;-71
2023/08/28 02:20:38;;;;;;;43.83;18.17;;;11.30;99.90;;;;;;5031401;28;20065;-71
2023/08/28 02:23:03;;;;;;;37.13;16.60;;;11.30;99.90;;;;;;5035559;28;20030;-71
2023/08/28 02:25:29;;;;;;;39.35;16.88;;;11.20;99.90;;;;;;5027492;28;20053;-71
2023/08/28 02:27:54;;;;;;;40.75;18.80;;;11.20;99.90;;;;;;5030618;28;20105;-70
2023/08/28 02:30:20;;;;;;;42.83;18.58;;;11.20;99.90;;;;;;5018845;28;20037;-71
2023/08/28 02:32:45;;;;;;;41.97;18.20;;;11.20;99.90;;;;;;5023485;28;20059;-71
2023/08/28 02:35:14;;;;;;;39.53;18.10;;;11.20;99.90;;;;;;5018298;28;20030;-71
2023/08/28 02:37:40;;;;;;;42.38;18.30;;;11.20;99.90;;;;;;5022018;28;20037;-71
2023/08/28 02:40:06;;;;;;;41.90;19.45;;;11.30;99.90;;;;;;5025284;28;20033;-70
2023/08/28 02:42:32;;;;;;;43.25;17.88;;;11.20;99.90;;;;;;5021996;28;20033;-71
2023/08/28 02:44:58;;;;;;;43.40;17.77;;;11.30;99.90;;;;;;5017147;28;20076;-71
2023/08/28 02:47:23;;;;;;;47.13;19.50;;;11.30;99.90;;;;;;5024324;28;20458;-71
2023/08/28 02:49:49;;;;;;;42.28;19.58;;;11.40;99.90;;;;;;5017944;28;20357;-71
2023/08/28 02:52:14;;;;;;;42.22;19.25;;;11.40;99.90;;;;;;5031550;28;20026;-71
2023/08/28 02:54:40;;;;;;;41.97;19.02;;;11.40;99.90;;;;;;5020711;28;20026;-71
2023/08/28 02:57:05;;;;;;;39.83;19.63;;;11.30;99.90;;;;;;5026630;28;20033;-71
2023/08/28 02:59:31;;;;;;;48.13;19.30;;;11.30;99.90;;;;;;5018107;28;20081;-71
2023/08/28 03:01:57;;;;;;;47.85;19.25;;;11.30;99.90;;;;;;5020434;28;20033;-71
2023/08/28 03:04:22;;;;;;;47.50;19.55;;;11.30;99.90;;;;;;5028785;28;20255;-71
2023/08/28 03:06:48;;;;;;;47.45;20.05;;;11.20;99.90;;;;;;5027319;28;20083;-71
2023/08/28 03:09:14;;;;;;;48.05;20.23;;;11.30;99.90;;;;;;5022521;28;20048;-71
2023/08/28 03:11:39;;;;;;;39.97;19.02;;;11.20;99.90;;;;;;5028499;28;20035;-71
2023/08/28 03:14:05;;;;;;;38.25;17.70;;;11.20;99.90;;;;;;5021337;28;20025;-71
2023/08/28 03:16:30;;;;;;;41.50;19.52;;;11.20;99.90;;;;;;5019406;28;20029;-71
2023/08/28 03:18:56;;;;;;;43.08;19.55;;;11.20;99.90;;;;;;5027041;28;20622;-71
2023/08/28 03:21:21;;;;;;;44.65;20.30;;;11.20;99.90;;;;;;5024481;28;20022;-71
2023/08/28 03:23:47;;;;;;;42.17;19.17;;;11.20;99.90;;;;;;5025811;28;20033;-71
2023/08/28 03:26:13;;;;;;;50.40;20.20;;;11.20;99.90;;;;;;5031879;28;20048;-71
2023/08/28 03:28:38;;;;;;;49.20;21.77;;;11.30;99.90;;;;;;5036046;28;20069;-72
2023/08/28 03:31:03;;;;;;;50.47;21.05;;;11.30;99.90;;;;;;5015160;28;20026;-71
2023/08/28 03:33:29;;;;;;;50.78;21.35;;;11.30;99.90;;;;;;5023082;28;20049;-71
2023/08/28 03:35:55;;;;;;;50.40;21.80;;;11.40;99.90;;;;;;5018230;28;20437;-71
2023/08/28 03:38:20;;;;;;;50.92;22.77;;;11.40;99.90;;;;;;5030634;28;20021;-71
2023/08/28 03:40:46;;;;;;;52.15;23.23;;;11.50;99.90;;;;;;5025674;28;20123;-71
2023/08/28 03:43:13;;;;;;;52.45;22.48;;;11.50;99.90;;;;;;5025653;28;20032;-71
2023/08/28 03:45:39;;;;;;;50.80;22.83;;;11.50;99.90;;;;;;5021527;28;20041;-71
2023/08/28 03:48:05;;;;;;;53.83;22.20;;;11.50;99.90;;;;;;5022546;28;20049;-71
2023/08/28 03:50:31;;;;;;;49.25;21.52;;;11.50;99.90;;;;;;5018362;28;20367;-71
2023/08/28 03:52:57;;;;;;;49.92;21.30;;;11.40;99.90;;;;;;5025770;28;20033;-71
2023/08/28 03:55:23;;;;;;;49.25;22.42;;;11.50;99.90;;;;;;5026312;28;20029;-71
2023/08/28 03:57:51;;;;;;;55.75;22.88;;;11.50;99.90;;;;;;5017262;28;20045;-71
2023/08/28 04:00:18;;;;;;;48.45;22.67;;;11.50;99.90;;;;;;5011552;28;20075;-71
2023/08/28 04:02:46;;;;;;;55.00;22.98;;;11.50;99.90;;;;;;5021047;28;20017;-71
2023/08/28 04:05:11;;;;;;;50.30;22.38;;;11.60;99.90;;;;;;5013974;28;20021;-71
2023/08/28 04:07:37;;;;;;;52.40;23.30;;;11.60;99.90;;;;;;5017129;28;20551;-71
2023/08/28 04:10:03;;;;;;;48.58;22.40;;;11.60;99.90;;;;;;5032243;28;20111;-71
2023/08/28 04:12:28;;;;;;;58.88;23.40;;;11.60;99.90;;;;;;5026461;28;20363;-72
2023/08/28 04:14:54;;;;;;;52.53;22.48;;;11.50;99.90;;;;;;5019628;28;20481;-72
2023/08/28 04:17:19;;;;;;;53.42;20.80;;;11.50;99.90;;;;;;5029611;28;20024;-72
2023/08/28 04:19:45;;;;;;;50.67;21.35;;;11.50;99.90;;;;;;5030414;28;20076;-72
2023/08/28 04:22:11;;;;;;;51.88;21.55;;;11.50;99.90;;;;;;5025548;28;20033;-71
2023/08/28 04:24:37;;;;;;;45.28;21.50;;;11.50;99.90;;;;;;5031483;28;20397;-71
2023/08/28 04:27:02;;;;;;;43.88;20.88;;;11.50;99.90;;;;;;5021765;28;20064;-68
2023/08/28 04:29:28;;;;;;;48.40;21.35;;;11.40;99.90;;;;;;5019593;28;20029;-70
2023/08/28 04:31:53;;;;;;;46.75;20.90;;;11.40;99.90;;;;;;5027308;28;20025;-69
2023/08/28 04:34:19;;;;;;;49.10;20.90;;;11.50;99.90;;;;;;5027718;28;20474;-69
2023/08/28 04:36:44;;;;;;;44.13;19.02;;;11.50;99.90;;;;;;5028643;28;20037;-69
2023/08/28 04:39:10;;;;;;;46.78;20.00;;;11.50;99.90;;;;;;5029912;28;20375;-69
2023/08/28 04:41:35;;;;;;;47.50;20.40;;;11.40;99.90;;;;;;5031882;28;20037;-69
2023/08/28 04:44:00;;;;;;;51.17;21.13;;;11.50;99.90;;;;;;5035714;28;20030;-69
2023/08/28 04:46:27;;;;;;;46.22;19.67;;;11.50;99.90;;;;;;5033675;28;20416;-69
2023/08/28 04:48:53;;;;;;;46.63;20.90;;;11.50;99.90;;;;;;5036676;28;20064;-69
2023/08/28 04:51:18;;;;;;;47.78;21.25;;;11.50;99.90;;;;;;5038446;28;20048;-69
2023/08/28 04:53:44;;;;;;;44.63;20.33;;;11.40;99.90;;;;;;5037820;28;20072;-69
2023/08/28 04:56:09;;;;;;;49.00;20.75;;;11.40;99.90;;;;;;5032971;28;20052;-69
2023/08/28 04:58:35;;;;;;;47.38;20.52;;;11.40;99.90;;;;;;5030226;28;20143;-69
2023/08/28 05:01:01;;;;;;;46.22;21.02;;;11.30;99.90;;;;;;5024807;28;20120;-69
2023/08/28 05:03:26;;;;;;;45.25;20.23;;;11.30;99.90;;;;;;5035437;28;20038;-69
2023/08/28 05:05:52;;;;;;;43.97;19.85;;;11.40;99.90;;;;;;5037606;28;20430;-69
2023/08/28 05:08:18;;;;;;;48.80;21.15;;;11.40;99.90;;;;;;5043288;28;20117;-70
2023/08/28 05:10:43;;;;;;;51.05;20.45;;;11.40;99.90;;;;;;5038849;28;20112;-69
2023/08/28 05:13:08;;;;;;;45.22;20.70;;;11.30;99.90;;;;;;5027300;28;20029;-69
2023/08/28 05:15:34;;;;;;;49.20;21.13;;;11.40;99.90;;;;;;5037494;28;20108;-69
2023/08/28 05:18:00;;;;;;;49.10;21.20;;;11.40;99.90;;;;;;5042904;28;20048;-70
2023/08/28 05:20:26;;;;;;;52.08;20.83;;;11.40;99.90;;;;;;5033035;28;20456;-69
2023/08/28 05:22:51;;;;;;;46.30;20.33;;;11.30;99.90;;;;;;5039326;28;20159;-70
2023/08/28 05:25:17;;;;;;;53.70;20.67;;;11.40;99.90;;;;;;5028957;28;20409;-70
2023/08/28 05:27:43;;;;;;;49.85;20.90;;;11.40;99.90;;;;;;5048068;28;20017;-70
2023/08/28 05:30:09;;;;;;;47.65;21.35;;;11.50;99.90;;;;;;5027784;28;20103;-70
2023/08/28 05:32:34;;;;;;;46.78;19.75;;;11.50;99.90;;;;;;5031952;28;20026;-69
2023/08/28 05:35:00;;;;;;;50.10;20.75;;;11.50;99.90;;;;;;5033786;28;20087;-69
2023/08/28 05:37:25;;;;;;;48.50;20.35;;;11.60;99.90;;;;;;5020099;28;20033;-69
2023/08/28 05:39:52;;;;;;;46.80;20.75;;;11.60;99.90;;;;;;5021662;28;20041;-70
2023/08/28 05:42:17;;;;;;;45.28;20.92;;;11.70;99.90;;;;;;5024250;28;20026;-69
2023/08/28 05:44:45;;;;;;;46.75;21.30;;;11.70;99.90;;;;;;5024520;28;20033;-70
2023/08/28 05:47:10;;;;;;;46.55;21.67;;;11.80;99.90;;;;;;5031843;28;20026;-69
2023/08/28 05:49:36;;;;;;;47.70;20.52;;;11.90;99.90;;;;;;5026569;28;20034;-69
2023/08/28 05:52:02;;;;;;;55.78;21.83;;;12.00;99.90;;;;;;5025209;28;20026;-69
2023/08/28 05:54:28;;;;;;;52.53;20.17;;;12.00;99.90;;;;;;5024111;28;20026;-70
2023/08/28 05:56:54;;;;;;;55.08;23.17;;;12.10;99.90;;;;;;5027137;28;20083;-69
2023/08/28 05:59:20;;;;;;;51.58;20.73;;;12.10;99.90;;;;;;5028622;28;20025;-68
2023/08/28 06:01:45;;;;;;;57.78;22.10;;;12.10;99.90;;;;;;5023732;28;20038;-69
2023/08/28 06:04:11;;;;;;;58.00;21.70;;;12.20;99.90;;;;;;5026900;28;20068;-69
2023/08/28 06:06:38;;;;;;;54.80;21.08;;;12.30;99.90;;;;;;5030498;28;20366;-69
2023/08/28 06:09:04;;;;;;;51.90;20.77;;;12.30;99.90;;;;;;5044220;28;20025;-69
2023/08/28 06:11:29;;;;;;;51.67;22.38;;;12.30;99.90;;;;;;5021611;28;20036;-69
2023/08/28 06:13:55;;;;;;;48.63;20.45;;;12.40;99.90;;;;;;5025004;28;20120;-69
2023/08/28 06:16:20;;;;;;;48.88;21.88;;;12.50;99.90;;;;;;5031288;28;20079;-69
2023/08/28 06:18:45;;;;;;;51.83;22.17;;;12.50;99.90;;;;;;5031468;28;20049;-69
2023/08/28 06:21:11;;;;;;;50.13;21.25;;;12.60;99.90;;;;;;5027934;28;20378;-69
2023/08/28 06:23:37;;;;;;;48.40;21.33;;;12.60;99.90;;;;;;5042912;28;20052;-70
2023/08/28 06:26:03;;;;;;;46.53;20.17;;;12.70;99.90;;;;;;5025532;28;20446;-69
2023/08/28 06:28:29;;;;;;;44.53;20.98;;;12.70;99.90;;;;;;5037918;28;20040;-69
2023/08/28 06:30:55;;;;;;;48.17;21.10;;;12.80;99.90;;;;;;5022880;28;22947;-69
2023/08/28 06:33:21;;;;;;;52.08;20.65;;;12.80;99.90;;;;;;5038297;28;20029;-69
2023/08/28 06:35:47;;;;;;;46.30;19.70;;;12.90;99.90;;;;;;5024925;28;20022;-70
2023/08/28 06:38:13;;;;;;;42.53;20.40;;;12.90;99.80;;;;;;5038442;28;20067;-69
2023/08/28 06:40:38;;;;;;;40.22;18.23;;;12.90;99.80;;;;;;5023510;28;20030;-70
2023/08/28 06:43:04;;;;;;;41.83;19.73;;;13.00;99.80;;;;;;5029976;28;20030;-69
2023/08/28 06:45:31;;;;;;;39.72;17.23;;;13.10;99.60;;;;;;5029346;28;20033;-69
2023/08/28 06:47:57;;;;;;;41.90;18.50;;;13.20;99.60;;;;;;5043702;28;20025;-69
2023/08/28 06:50:23;;;;;;;39.03;19.38;;;13.20;99.30;;;;;;5030304;28;20033;-69
2023/08/28 06:52:49;;;;;;;39.25;18.38;;;13.20;99.20;;;;;;5021560;28;20474;-70
2023/08/28 06:55:14;;;;;;;37.03;18.15;;;13.50;99.40;;;;;;5022451;28;20021;-69
2023/08/28 06:57:40;;;;;;;34.20;18.45;;;13.40;98.90;;;;;;5035304;28;20029;-70
2023/08/28 07:00:08;;;;;;;39.10;18.00;;;13.50;99.10;;;;;;5022486;28;20026;-71
2023/08/28 07:02:36;;;;;;;33.75;17.85;;;13.60;99.00;;;;;;5019984;28;20061;-72
2023/08/28 07:05:01;;;;;;;39.08;16.92;;;13.60;98.70;;;;;;5029932;28;20064;-72
2023/08/28 07:07:27;;;;;;;31.90;16.95;;;13.60;98.80;;;;;;5027222;28;20144;-72
2023/08/28 07:09:52;;;;;;;32.63;17.88;;;13.70;98.90;;;;;;5020147;28;20064;-71
2023/08/28 07:12:18;;;;;;;32.28;17.23;;;13.70;98.60;;;;;;5031946;28;20481;-68
2023/08/28 07:14:43;;;;;;;32.42;17.27;;;13.90;98.60;;;;;;5013579;28;20025;-75
2023/08/28 07:17:09;;;;;;;26.85;15.82;;;13.90;98.30;;;;;;5026607;28;20033;-68
2023/08/28 07:19:34;;;;;;;28.73;15.57;;;13.90;98.20;;;;;;5026247;28;20033;-68
2023/08/28 07:22:00;;;;;;;29.15;15.68;;;14.00;98.20;;;;;;5025898;28;20042;-68
2023/08/28 07:24:26;;;;;;;28.40;15.38;;;14.10;98.00;;;;;;5032686;28;20114;-68
2023/08/28 07:26:52;;;;;;;24.17;14.07;;;14.10;97.60;;;;;;5026313;28;20072;-72
2023/08/28 07:29:17;;;;;;;22.25;13.95;;;14.20;97.40;;;;;;5025675;28;20026;-72
2023/08/28 07:31:43;;;;;;;20.70;13.50;;;14.40;97.30;;;;;;5029506;28;20021;-69
2023/08/28 07:34:08;;;;;;;16.17;12.25;;;14.30;97.00;;;;;;5019263;28;20041;-71
2023/08/28 07:36:37;;;;;;;18.45;11.40;;;14.10;96.80;;;;;;5018800;28;20065;-68
2023/08/28 07:39:02;;;;;;;16.02;11.65;;;14.10;97.20;;;;;;5020753;28;20053;-68
2023/08/28 07:41:28;;;;;;;15.85;12.07;;;14.10;97.40;;;;;;5022782;28;20065;-68
2023/08/28 07:43:53;;;;;;;19.33;12.50;;;14.20;97.50;;;;;;5022132;28;20113;-68
2023/08/28 07:46:19;;;;;;;17.58;13.15;;;14.40;97.10;;;;;;5027573;28;20022;-68
2023/08/28 07:48:44;;;;;;;13.55;11.75;;;14.60;97.10;;;;;;5026078;28;20068;-68
2023/08/28 07:51:10;;;;;;;17.42;11.68;;;14.70;96.10;;;;;;5025724;28;20037;-68
2023/08/28 07:53:36;;;;;;;16.55;11.95;;;14.80;96.50;;;;;;5025502;28;20030;-68
2023/08/28 07:56:02;;;;;;;14.70;10.80;;;14.80;96.20;;;;;;5024182;28;20022;-70
2023/08/28 07:58:29;;;;;;;12.70;10.65;;;14.60;95.90;;;;;;5019009;28;20036;-71
2023/08/28 08:00:55;;;;;;;16.20;11.57;;;14.50;96.50;;;;;;5021366;28;20033;-68
2023/08/28 08:03:21;;;;;;;14.73;11.23;;;14.50;96.40;;;;;;5022234;28;20530;-68
2023/08/28 08:05:47;;;;;;;14.20;11.68;;;14.60;96.60;;;;;;5021776;28;20069;-69
2023/08/28 08:08:12;;;;;;;16.45;11.95;;;15.10;96.30;;;;;;5023678;28;20028;-69
2023/08/28 08:10:38;;;;;;;17.20;12.68;;;15.60;95.50;;;;;;5022439;28;20034;-72
2023/08/28 08:13:04;;;;;;;16.20;11.88;;;15.90;93.70;;;;;;5030072;28;20019;-71
2023/08/28 08:15:30;;;;;;;15.05;11.02;;;16.00;93.60;;;;;;5031758;28;20113;-69
2023/08/28 08:17:55;;;;;;;12.80;9.77;;;16.00;94.30;;;;;;5023434;28;20493;-70
2023/08/28 08:20:21;;;;;;;14.48;11.35;;;15.70;92.80;;;;;;5032049;28;20037;-68
2023/08/28 08:22:47;;;;;;;15.52;10.82;;;16.00;93.90;;;;;;5028212;28;20045;-70
2023/08/28 08:25:13;;;;;;;11.52;10.32;;;16.10;92.30;;;;;;5030022;28;20123;-71
2023/08/28 08:27:39;;;;;;;13.80;9.60;;;16.10;92.30;;;;;;5028219;28;20030;-71
2023/08/28 08:30:07;;;;;;;11.02;9.70;;;16.40;92.90;;;;;;5018493;28;20048;-70
2023/08/28 08:32:32;;;;;;;11.45;8.65;;;16.20;92.40;;;;;;5030190;28;20026;-71
2023/08/28 08:34:59;;;;;;;11.38;9.77;;;16.40;92.50;;;;;;5017531;28;20029;-69
2023/08/28 08:37:28;;;;;;;11.23;9.13;;;16.70;91.20;;;;;;5026231;28;20100;-71
2023/08/28 08:39:53;;;;;;;11.18;8.68;;;16.50;89.50;;;;;;5022772;28;20040;-68
2023/08/28 08:42:19;;;;;;;9.88;8.15;;;16.80;90.30;;;;;;5023866;28;20025;-68
2023/08/28 08:44:45;;;;;;;9.27;7.75;;;16.80;90.60;;;;;;5022117;28;20056;-70
2023/08/28 08:47:11;;;;;;;9.70;7.78;;;16.50;90.60;;;;;;5031454;28;20088;-69
2023/08/28 08:49:39;;;;;;;8.60;7.70;;;16.50;90.60;;;;;;5021902;28;20112;-69
2023/08/28 08:52:09;;;;;;;11.63;8.52;;;16.60;90.10;;;;;;5031824;28;20021;-70
2023/08/28 08:54:42;;;;;;;9.57;7.88;;;16.60;89.90;;;;;;5021318;28;20026;-69
2023/08/28 08:57:21;;;;;;;8.52;7.10;;;16.40;90.40;;;;;;5025047;28;20030;-69
2023/08/28 08:59:51;;;;;;;8.30;6.80;;;16.40;90.10;;;;;;5024396;28;20292;-69
2023/08/28 09:02:16;;;;;;;8.30;6.60;;;16.40;89.80;;;;;;5022615;28;20660;-70
2023/08/28 09:04:42;;;;;;;8.63;6.35;;;16.60;89.50;;;;;;5019605;28;20042;-69
2023/08/28 09:07:09;;;;;;;12.23;6.65;;;16.90;89.10;;;;;;5020242;28;20040;-70
2023/08/28 09:09:35;;;;;;;10.55;7.22;;;17.50;88.60;;;;;;5019807;28;20096;-68
2023/08/28 09:12:00;;;;;;;7.78;5.07;;;17.80;87.70;;;;;;5025831;28;20057;-69
2023/08/28 09:14:28;;;;;;;11.77;5.13;;;18.30;85.70;;;;;;5027005;28;20465;-70
2023/08/28 09:16:54;;;;;;;6.28;3.95;;;18.10;85.70;;;;;;5021803;28;20474;-68
2023/08/28 09:19:20;;;;;;;8.85;4.53;;;18.00;85.80;;;;;;5024538;28;20079;-70
2023/08/28 09:21:49;;;;;;;8.18;4.28;;;17.70;87.00;;;;;;5034477;28;20033;-68
2023/08/28 09:24:21;;;;;;;9.48;5.07;;;18.00;85.20;;;;;;5031482;28;20037;-68
2023/08/28 09:26:55;;;;;;;10.48;4.38;;;18.20;86.20;;;;;;5029481;28;20040;-68
2023/08/28 09:29:23;;;;;;;5.80;3.63;;;18.40;85.10;;;;;;5019866;28;20033;-68
2023/08/28 09:31:51;;;;;;;7.50;3.50;;;18.70;84.40;;;;;;5015339;28;20497;-69
2023/08/28 09:34:18;;;;;;;5.28;3.38;;;18.50;83.50;;;;;;5024535;28;20095;-69
2023/08/28 09:36:44;;;;;;;6.50;3.03;;;18.90;83.50;;;;;;5029325;28;20483;-69
2023/08/28 09:39:11;;;;;;;3.55;2.65;;;19.00;83.80;;;;;;5027722;28;20029;-68
2023/08/28 09:41:48;;;;;;;3.67;2.53;;;19.10;81.60;;;;;;5026717;28;20478;-69
2023/08/28 09:44:15;;;;;;;8.38;2.78;;;19.40;81.50;;;;;;5026387;28;20030;-68
2023/08/28 09:46:45;;;;;;;5.18;2.47;;;19.50;80.70;;;;;;5023763;28;20021;-68
2023/08/28 09:49:13;;;;;;;5.13;2.53;;;19.90;81.20;;;;;;5021443;28;20470;-69
2023/08/28 09:51:43;;;;;;;8.80;2.10;;;20.00;80.50;;;;;;5019481;28;20084;-68
2023/08/28 09:54:10;;;;;;;4.70;1.88;;;20.00;76.70;;;;;;5033296;28;20017;-69
2023/08/28 09:56:37;;;;;;;4.72;1.95;;;20.00;78.60;;;;;;5039491;28;20413;-69
2023/08/28 09:59:03;;;;;;;5.50;1.73;;;20.20;77.40;;;;;;5033430;28;20022;-68
2023/08/28 10:01:33;;;;;;;4.03;1.20;;;20.00;75.60;;;;;;5019200;28;20034;-69
2023/08/28 10:04:01;;;;;;;3.92;1.35;;;20.50;76.80;;;;;;5027987;28;20026;-68
2023/08/28 10:06:30;;;;;;;5.18;1.20;;;20.50;74.20;;;;;;5037139;28;20040;-68
2023/08/28 10:08:58;;;;;;;1.83;1.05;;;20.50;71.90;;;;;;5029385;28;20033;-70
2023/08/28 10:11:29;;;;;;;2.58;1.20;;;20.30;73.20;;;;;;5026722;28;20029;-69
2023/08/28 10:13:55;;;;;;;3.25;1.05;;;20.30;72.60;;;;;;5027312;28;20150;-68
2023/08/28 10:16:24;;;;;;;3.72;0.90;;;20.10;73.50;;;;;;5030682;28;20788;-68
2023/08/28 10:18:59;;;;;;;1.88;0.77;;;20.40;71.80;;;;;;5031636;28;20022;-69
2023/08/28 10:21:25;;;;;;;1.30;0.77;;;20.60;70.10;;;;;;5033895;28;20493;-69
2023/08/28 10:23:53;;;;;;;4.35;0.85;;;20.60;70.90;;;;;;5031079;28;20088;-69
2023/08/28 10:26:20;;;;;;;2.35;1.10;;;20.50;70.80;;;;;;5028923;28;20120;-68
2023/08/28 10:28:46;;;;;;;2.40;1.10;;;20.00;73.90;;;;;;5032316;28;20115;-68
2023/08/28 10:31:13;;;;;;;1.45;0.90;;;20.00;72.30;;;;;;5021592;28;20116;-69
2023/08/28 10:33:39;;;;;;;1.42;1.08;;;20.10;73.00;;;;;;5031046;28;20017;-69
2023/08/28 10:36:08;;;;;;;2.92;1.00;;;20.40;71.20;;;;;;5029506;28;20025;-69
2023/08/28 10:38:34;;;;;;;2.55;0.90;;;20.60;71.10;;;;;;5028516;28;20021;-69
2023/08/28 10:41:00;;;;;;;4.38;0.90;;;20.10;71.20;;;;;;5026286;28;20116;-69
2023/08/28 10:43:26;;;;;;;3.33;0.70;;;20.10;72.70;;;;;;5030536;28;20421;-69
2023/08/28 10:45:56;;;;;;;2.13;0.57;;;20.50;71.30;;;;;;5028007;28;20470;-69
2023/08/28 10:48:21;;;;;;;2.80;0.68;;;20.50;69.50;;;;;;5032496;28;20061;-69
2023/08/28 10:50:47;;;;;;;2.33;0.55;;;20.70;67.40;;;;;;5030816;28;20064;-69
2023/08/28 10:53:14;;;;;;;1.95;0.68;;;20.80;67.90;;;;;;5042137;28;20026;-69
2023/08/28 10:56:00;;;;;;;2.95;0.65;;;21.00;66.90;;;;;;5033487;28;20032;-69
2023/08/28 10:58:30;;;;;;;2.30;0.60;;;21.30;67.30;;;;;;5027451;28;20067;-69
2023/08/28 11:01:17;;;;;;;3.17;0.80;;;21.00;67.20;;;;;;5025941;28;20033;-69
2023/08/28 11:03:58;;;;;;;3.40;0.77;;;21.10;66.60;;;;;;5021688;28;20030;-69
2023/08/28 11:06:43;;;;;;;4.10;0.85;;;21.20;67.90;;;;;;5017706;28;20030;-69
2023/08/28 11:09:31;;;;;;;1.65;0.52;;;20.90;67.80;;;;;;5020434;28;20022;-69
2023/08/28 11:12:02;;;;;;;3.97;0.93;;;20.50;68.70;;;;;;5030746;28;20520;-68
2023/08/28 11:15:03;;;;;;;1.15;0.50;;;20.50;70.30;;;;;;5027039;28;20370;-70
2023/08/28 11:17:30;;;;;;;1.67;0.35;;;20.20;68.40;;;;;;5004813;28;20056;-70
2023/08/28 11:19:56;;;;;;;0.47;0.30;;;20.40;66.30;;;;;;5032445;28;20037;-69
2023/08/28 11:22:42;;;;;;;1.92;0.60;;;20.80;65.30;;;;;;5037471;28;20525;-68
2023/08/28 11:25:12;;;;;;;3.15;0.40;;;21.20;65.80;;;;;;5029951;28;20059;-69
2023/08/28 11:27:54;;;;;;;1.02;0.40;;;21.50;66.10;;;;;;5038490;28;20029;-68
2023/08/28 11:30:21;;;;;;;2.25;0.38;;;21.70;64.50;;;;;;5026370;28;20032;-69
2023/08/28 11:32:53;;;;;;;2.85;0.40;;;22.00;63.60;;;;;;5023614;28;20486;-68
2023/08/28 11:35:20;;;;;;;0.52;0.38;;;21.70;63.70;;;;;;5026225;28;20022;-68
2023/08/28 11:37:48;;;;;;;3.47;0.60;;;21.40;63.70;;;;;;5036887;28;20037;-68
2023/08/28 11:40:24;;;;;;;1.65;0.73;;;21.10;64.20;;;;;;5038235;28;20535;-68
2023/08/28 11:43:04;;;;;;;1.75;0.52;;;21.20;65.00;;;;;;5025142;28;20034;-68
2023/08/28 11:45:29;;;;;;;5.43;0.60;;;21.50;65.40;;;;;;5021947;28;20048;-71
2023/08/28 11:47:59;;;;;;;5.45;0.80;;;21.20;64.80;;;;;;5021128;28;20549;-69
2023/08/28 11:50:26;;;;;;;4.05;0.82;;;21.40;67.20;;;;;;5021567;28;20065;-71
2023/08/28 11:52:51;;;;;;;1.80;0.55;;;21.50;68.20;;;;;;5032229;28;20025;-73
2023/08/28 11:55:19;;;;;;;2.47;0.60;;;20.80;69.80;;;;;;5037582;28;20033;-70
2023/08/28 11:57:45;;;;;;;4.80;0.68;;;20.60;71.10;;;;;;5033075;28;20022;-70
2023/08/28 12:00:14;;;;;;;3.53;0.82;;;20.80;70.60;;;;;;5017510;28;20441;-73
2023/08/28 12:02:43;;;;;;;2.95;0.70;;;21.20;68.40;;;;;;5025724;28;20107;-73
2023/08/28 12:05:09;;;;;;;2.38;0.60;;;21.30;67.50;;;;;;5039718;28;20369;-69
2023/08/28 12:07:35;;;;;;;2.60;0.63;;;21.90;66.90;;;;;;5028183;28;20032;-70
2023/08/28 12:10:00;;;;;;;3.25;0.63;;;22.00;64.50;;;;;;5032696;28;20447;-73
2023/08/28 12:12:29;;;;;;;1.67;0.50;;;22.10;64.50;;;;;;5025503;28;20521;-73
2023/08/28 12:14:54;;;;;;;2.67;0.40;;;22.60;62.70;;;;;;5019758;28;20136;-73
2023/08/28 12:17:23;;;;;;;0.75;0.38;;;22.90;58.20;;;;;;5020778;28;20534;-70
2023/08/28 12:19:52;;;;;;;0.68;0.20;;;23.20;56.70;;;;;;5028297;28;20030;-71
2023/08/28 12:22:21;;;;;;;1.15;0.45;;;23.30;54.90;;;;;;5019684;28;20033;-71
2023/08/28 12:24:49;;;;;;;1.02;0.10;;;24.10;58.30;;;;;;5019333;28;20473;-78
2023/08/28 12:27:16;;;;;;;2.13;0.30;;;23.00;51.90;;;;;;5026814;28;20033;-70
2023/08/28 12:29:43;;;;;;;1.92;0.32;;;22.50;55.60;;;;;;5030162;28;20037;-69
2023/08/28 12:32:17;;;;;;;1.50;0.30;;;22.00;56.50;;;;;;5022436;28;20029;-69